sensor_id;sensor_type;location;lat;lon;timestamp;pressure;altitude;pressure_sealevel;temperature;humidity
31299;BME280;17927;52.350;13.402;2023-10-19T00:01:55;100140.78;;;11.74;48.27
31299;BME280;17927;52.350;13.402;2023-10-19T00:04:20;100131.66;;;11.75;48.29
31299;BME280;17927;52.350;13.402;2023-10-19T00:06:47;100132.66;;;11.74;48.30
31299;BME280;17927;52.350;13.402;2023-10-19T00:09:13;100136.22;;;11.75;48.36
31299;BME280;17927;52.350;13.402;2023-10-19T00:11:40;100128.09;;;11.75;48.06
31299;BME280;17927;52.350;13.402;2023-10-19T00:14:06;100121.84;;;11.74;48.24
31299;BME280;17927;52.350;13.402;2023-10-19T00:16:40;100123.00;;;11.71;48.52
31299;BME280;17927;52.350;13.402;2023-10-19T00:19:05;100112.38;;;11.70;48.36
31299;BME280;17927;52.350;13.402;2023-10-19T00:21:31;100094.44;;;11.69;48.35
31299;BME280;17927;52.350;13.402;2023-10-19T00:24:13;100092.06;;;11.66;48.39
31299;BME280;17927;52.350;13.402;2023-10-19T00:26:41;100086.66;;;11.66;48.49
31299;BME280;17927;52.350;13.402;2023-10-19T00:29:07;100085.97;;;11.64;48.45
31299;BME280;17927;52.350;13.402;2023-10-19T00:31:51;100088.84;;;11.62;48.46
31299;BME280;17927;52.350;13.402;2023-10-19T00:34:16;100085.28;;;11.62;48.32
31299;BME280;17927;52.350;13.402;2023-10-19T00:36:41;100088.16;;;11.60;48.65
31299;BME280;17927;52.350;13.402;2023-10-19T00:39:06;100079.22;;;11.60;48.60
31299;BME280;17927;52.350;13.402;2023-10-19T00:41:39;100068.53;;;11.58;48.69
31299;BME280;17927;52.350;13.402;2023-10-19T00:44:05;100067.53;;;11.59;48.41
31299;BME280;17927;52.350;13.402;2023-10-19T00:46:38;100070.25;;;11.59;48.66
31299;BME280;17927;52.350;13.402;2023-10-19T00:49:06;100066.53;;;11.60;48.67
31299;BME280;17927;52.350;13.402;2023-10-19T00:51:36;100064.81;;;11.59;48.69
31299;BME280;17927;52.350;13.402;2023-10-19T00:54:18;100064.00;;;11.58;48.69
31299;BME280;17927;52.350;13.402;2023-10-19T00:56:52;100059.75;;;11.56;48.70
31299;BME280;17927;52.350;13.402;2023-10-19T00:59:21;100045.38;;;11.55;48.62
31299;BME280;17927;52.350;13.402;2023-10-19T01:01:53;100037.41;;;11.54;48.58
31299;BME280;17927;52.350;13.402;2023-10-19T01:04:37;100037.78;;;11.51;48.79
31299;BME280;17927;52.350;13.402;2023-10-19T01:07:07;100035.22;;;11.49;48.68
31299;BME280;17927;52.350;13.402;2023-10-19T01:09:38;100026.97;;;11.51;48.71
31299;BME280;17927;52.350;13.402;2023-10-19T01:12:04;100029.50;;;11.52;48.86
31299;BME280;17927;52.350;13.402;2023-10-19T01:15:10;100013.59;;;11.49;48.74
31299;BME280;17927;52.350;13.402;2023-10-19T01:17:47;100012.91;;;11.47;49.29
31299;BME280;17927;52.350;13.402;2023-10-19T01:20:22;100010.19;;;11.47;48.82
31299;BME280;17927;52.350;13.402;2023-10-19T01:23:00;100005.81;;;11.46;48.96
31299;BME280;17927;52.350;13.402;2023-10-19T01:28:08;100001.41;;;11.45;49.07
31299;BME280;17927;52.350;13.402;2023-10-19T01:30:35;99993.28;;;11.45;48.71
31299;BME280;17927;52.350;13.402;2023-10-19T01:33:01;99994.97;;;11.46;49.07
31299;BME280;17927;52.350;13.402;2023-10-19T01:35:28;99986.72;;;11.48;49.01
31299;BME280;17927;52.350;13.402;2023-10-19T01:38:13;99986.03;;;11.46;48.90
31299;BME280;17927;52.350;13.402;2023-10-19T01:40:38;99980.63;;;11.46;48.82
31299;BME280;17927;52.350;13.402;2023-10-19T01:43:11;99978.09;;;11.44;49.09
31299;BME280;17927;52.350;13.402;2023-10-19T01:45:44;99967.09;;;11.46;49.03
31299;BME280;17927;52.350;13.402;2023-10-19T01:48:10;99970.81;;;11.45;49.12
31299;BME280;17927;52.350;13.402;2023-10-19T01:50:38;99965.59;;;11.43;48.81
31299;BME280;17927;52.350;13.402;2023-10-19T01:53:04;99957.63;;;11.41;49.23
31299;BME280;17927;52.350;13.402;2023-10-19T01:55:38;99955.78;;;11.42;49.34
31299;BME280;17927;52.350;13.402;2023-10-19T01:58:03;99955.78;;;11.42;49.10
31299;BME280;17927;52.350;13.402;2023-10-19T02:00:28;99949.38;;;11.43;49.30
31299;BME280;17927;52.350;13.402;2023-10-19T02:02:54;99947.50;;;11.43;49.44
31299;BME280;17927;52.350;13.402;2023-10-19T02:05:19;99952.06;;;11.43;49.31
31299;BME280;17927;52.350;13.402;2023-10-19T02:07:44;99952.91;;;11.43;49.15
31299;BME280;17927;52.350;13.402;2023-10-19T02:10:10;99937.69;;;11.42;49.03
31299;BME280;17927;52.350;13.402;2023-10-19T02:12:35;99917.06;;;11.41;49.38
31299;BME280;17927;52.350;13.402;2023-10-19T02:15:01;99917.94;;;11.42;49.49
31299;BME280;17927;52.350;13.402;2023-10-19T02:17:26;99913.53;;;11.41;49.41
31299;BME280;17927;52.350;13.402;2023-10-19T02:19:51;99918.09;;;11.40;49.31
31299;BME280;17927;52.350;13.402;2023-10-19T02:22:18;99913.69;;;11.39;49.56
31299;BME280;17927;52.350;13.402;2023-10-19T02:24:43;99914.69;;;11.38;49.37
31299;BME280;17927;52.350;13.402;2023-10-19T02:27:08;99909.28;;;11.38;49.25
31299;BME280;17927;52.350;13.402;2023-10-19T02:29:34;99910.84;;;11.41;49.35
31299;BME280;17927;52.350;13.402;2023-10-19T02:32:01;99902.88;;;11.39;49.50
31299;BME280;17927;52.350;13.402;2023-10-19T02:34:31;99898.16;;;11.41;49.42
31299;BME280;17927;52.350;13.402;2023-10-19T02:36:56;99886.31;;;11.42;49.56
31299;BME280;17927;52.350;13.402;2023-10-19T02:39:21;99885.28;;;11.43;49.35
31299;BME280;17927;52.350;13.402;2023-10-19T02:41:52;99872.28;;;11.31;49.59
31299;BME280;17927;52.350;13.402;2023-10-19T02:44:20;99875.34;;;11.36;49.35
31299;BME280;17927;52.350;13.402;2023-10-19T02:46:52;99877.69;;;11.39;49.34
31299;BME280;17927;52.350;13.402;2023-10-19T02:49:20;99879.22;;;11.41;49.35
31299;BME280;17927;52.350;13.402;2023-10-19T02:51:46;99864.34;;;11.46;49.64
31299;BME280;17927;52.350;13.402;2023-10-19T02:54:13;99865.16;;;11.46;49.74
31299;BME280;17927;52.350;13.402;2023-10-19T02:56:49;99869.56;;;11.47;49.69
31299;BME280;17927;52.350;13.402;2023-10-19T02:59:15;99862.31;;;11.48;49.68
31299;BME280;17927;52.350;13.402;2023-10-19T03:01:41;99862.13;;;11.49;49.67
31299;BME280;17927;52.350;13.402;2023-10-19T03:04:09;99858.41;;;11.50;49.61
31299;BME280;17927;52.350;13.402;2023-10-19T03:06:37;99857.22;;;11.53;49.52
31299;BME280;17927;52.350;13.402;2023-10-19T03:09:04;99848.97;;;11.54;49.52
31299;BME280;17927;52.350;13.402;2023-10-19T03:11:38;99844.56;;;11.53;49.75
31299;BME280;17927;52.350;13.402;2023-10-19T03:14:05;99842.53;;;11.55;49.50
31299;BME280;17927;52.350;13.402;2023-10-19T03:16:31;99841.66;;;11.55;49.41
31299;BME280;17927;52.350;13.402;2023-10-19T03:18:56;99852.34;;;11.56;49.48
31299;BME280;17927;52.350;13.402;2023-10-19T03:21:22;99848.63;;;11.57;49.36
31299;BME280;17927;52.350;13.402;2023-10-19T03:23:54;99834.22;;;11.57;49.54
31299;BME280;17927;52.350;13.402;2023-10-19T03:26:19;99833.22;;;11.58;49.55
31299;BME280;17927;52.350;13.402;2023-10-19T03:28:53;99831.19;;;11.60;49.70
31299;BME280;17927;52.350;13.402;2023-10-19T03:31:23;99825.59;;;11.62;49.68
31299;BME280;17927;52.350;13.402;2023-10-19T03:33:50;99822.75;;;11.63;49.66
31299;BME280;17927;52.350;13.402;2023-10-19T03:36:25;99827.28;;;11.63;49.51
31299;BME280;17927;52.350;13.402;2023-10-19T03:38:52;99831.69;;;11.64;49.67
31299;BME280;17927;52.350;13.402;2023-10-19T03:41:19;99824.44;;;11.64;49.67
31299;BME280;17927;52.350;13.402;2023-10-19T03:43:51;99813.59;;;11.64;49.77
31299;BME280;17927;52.350;13.402;2023-10-19T03:46:19;99806.50;;;11.63;49.73
31299;BME280;17927;52.350;13.402;2023-10-19T03:48:49;99796.53;;;11.64;49.89
31299;BME280;17927;52.350;13.402;2023-10-19T03:51:14;99801.78;;;11.65;49.72
31299;BME280;17927;52.350;13.402;2023-10-19T03:53:40;99799.75;;;11.67;49.71
31299;BME280;17927;52.350;13.402;2023-10-19T03:56:19;99791.78;;;11.66;49.95
31299;BME280;17927;52.350;13.402;2023-10-19T03:58:45;99794.34;;;11.67;49.72
31299;BME280;17927;52.350;13.402;2023-10-19T04:01:15;99793.28;;;11.68;49.64
31299;BME280;17927;52.350;13.402;2023-10-19T04:03:42;99787.72;;;11.70;49.63
31299;BME280;17927;52.350;13.402;2023-10-19T04:06:08;99782.31;;;11.70;49.82
31299;BME280;17927;52.350;13.402;2023-10-19T04:08:38;99774.53;;;11.67;49.63
31299;BME280;17927;52.350;13.402;2023-10-19T04:11:04;99769.13;;;11.67;49.78
31299;BME280;17927;52.350;13.402;2023-10-19T04:13:47;99768.44;;;11.65;49.81
31299;BME280;17927;52.350;13.402;2023-10-19T04:16:12;99763.03;;;11.65;49.75
31299;BME280;17927;52.350;13.402;2023-10-19T04:18:37;99763.03;;;11.65;49.72
31299;BME280;17927;52.350;13.402;2023-10-19T04:21:03;99756.81;;;11.64;49.67
31299;BME280;17927;52.350;13.402;2023-10-19T04:23:29;99755.94;;;11.64;49.62
31299;BME280;17927;52.350;13.402;2023-10-19T04:26:00;99754.25;;;11.63;49.66
31299;BME280;17927;52.350;13.402;2023-10-19T04:28:30;99755.13;;;11.63;49.82
31299;BME280;17927;52.350;13.402;2023-10-19T04:30:56;99753.22;;;11.64;49.85
31299;BME280;17927;52.350;13.402;2023-10-19T04:33:26;99746.31;;;11.61;49.53
31299;BME280;17927;52.350;13.402;2023-10-19T04:35:53;99750.88;;;11.61;49.93
31299;BME280;17927;52.350;13.402;2023-10-19T04:38:22;99749.84;;;11.62;49.67
31299;BME280;17927;52.350;13.402;2023-10-19T04:40:47;99744.63;;;11.60;49.56
31299;BME280;17927;52.350;13.402;2023-10-19T04:43:12;99746.50;;;11.60;50.03
31299;BME280;17927;52.350;13.402;2023-10-19T04:45:40;99748.00;;;11.62;50.05
31299;BME280;17927;52.350;13.402;2023-10-19T04:48:06;99743.28;;;11.64;49.92
31299;BME280;17927;52.350;13.402;2023-10-19T04:50:31;99736.66;;;11.67;49.88
31299;BME280;17927;52.350;13.402;2023-10-19T04:52:56;99739.19;;;11.68;49.65
31299;BME280;17927;52.350;13.402;2023-10-19T04:55:22;99734.63;;;11.69;49.65
31299;BME280;17927;52.350;13.402;2023-10-19T04:57:47;99730.72;;;11.71;49.77
31299;BME280;17927;52.350;13.402;2023-10-19T05:00:13;99732.41;;;11.72;49.61
31299;BME280;17927;52.350;13.402;2023-10-19T05:02:39;99725.16;;;11.73;49.84
31299;BME280;17927;52.350;13.402;2023-10-19T05:05:05;99720.56;;;11.73;49.87
31299;BME280;17927;52.350;13.402;2023-10-19T05:07:30;99716.84;;;11.75;49.90
31299;BME280;17927;52.350;13.402;2023-10-19T05:09:55;99715.34;;;11.72;49.94
31299;BME280;17927;52.350;13.402;2023-10-19T05:12:21;99707.03;;;11.73;49.94
31299;BME280;17927;52.350;13.402;2023-10-19T05:14:46;99699.13;;;11.72;49.93
31299;BME280;17927;52.350;13.402;2023-10-19T05:17:11;99699.28;;;11.70;50.05
31299;BME280;17927;52.350;13.402;2023-10-19T05:19:38;99696.22;;;11.73;49.97
31299;BME280;17927;52.350;13.402;2023-10-19T05:22:08;99691.00;;;11.72;49.98
31299;BME280;17927;52.350;13.402;2023-10-19T05:24:35;99695.41;;;11.73;50.15
31299;BME280;17927;52.350;13.402;2023-10-19T05:27:00;99688.28;;;11.72;50.13
31299;BME280;17927;52.350;13.402;2023-10-19T05:29:26;99688.44;;;11.70;49.92
31299;BME280;17927;52.350;13.402;2023-10-19T05:31:52;99696.41;;;11.72;50.28
31299;BME280;17927;52.350;13.402;2023-10-19T05:34:23;99696.41;;;11.72;50.03
31299;BME280;17927;52.350;13.402;2023-10-19T05:36:49;99701.81;;;11.72;49.99
31299;BME280;17927;52.350;13.402;2023-10-19T05:39:16;99698.44;;;11.70;50.30
31299;BME280;17927;52.350;13.402;2023-10-19T05:41:42;99704.69;;;11.70;50.36
31299;BME280;17927;52.350;13.402;2023-10-19T05:44:07;99710.97;;;11.71;50.27
31299;BME280;17927;52.350;13.402;2023-10-19T05:46:32;99711.97;;;11.70;49.98
31299;BME280;17927;52.350;13.402;2023-10-19T05:48:58;99722.59;;;11.71;50.58
31299;BME280;17927;52.350;13.402;2023-10-19T05:51:23;99718.06;;;11.72;50.61
31299;BME280;17927;52.350;13.402;2023-10-19T05:53:49;99719.75;;;11.73;50.58
31299;BME280;17927;52.350;13.402;2023-10-19T05:56:16;99722.44;;;11.73;50.32
31299;BME280;17927;52.350;13.402;2023-10-19T05:58:45;99722.44;;;11.73;50.53
31299;BME280;17927;52.350;13.402;2023-10-19T06:01:12;99723.47;;;11.72;50.50
31299;BME280;17927;52.350;13.402;2023-10-19T06:03:37;99720.75;;;11.72;50.68
31299;BME280;17927;52.350;13.402;2023-10-19T06:06:03;99711.63;;;11.73;50.74
31299;BME280;17927;52.350;13.402;2023-10-19T06:08:29;99704.34;;;11.73;50.56
31299;BME280;17927;52.350;13.402;2023-10-19T06:10:56;99702.66;;;11.72;50.72
31299;BME280;17927;52.350;13.402;2023-10-19T06:13:21;99691.00;;;11.72;50.68
31299;BME280;17927;52.350;13.402;2023-10-19T06:15:48;99679.66;;;11.68;50.88
31299;BME280;17927;52.350;13.402;2023-10-19T06:18:13;99681.72;;;11.66;50.91
31299;BME280;17927;52.350;13.402;2023-10-19T06:20:45;99672.09;;;11.64;50.96
31299;BME280;17927;52.350;13.402;2023-10-19T06:23:11;99668.72;;;11.62;51.09
31299;BME280;17927;52.350;13.402;2023-10-19T06:25:37;99677.69;;;11.62;50.92
31299;BME280;17927;52.350;13.402;2023-10-19T06:28:03;99668.72;;;11.62;51.04
31299;BME280;17927;52.350;13.402;2023-10-19T06:30:29;99666.19;;;11.60;51.17
31299;BME280;17927;52.350;13.402;2023-10-19T06:32:56;99668.22;;;11.58;51.38
31299;BME280;17927;52.350;13.402;2023-10-19T06:35:29;99658.63;;;11.55;51.33
31299;BME280;17927;52.350;13.402;2023-10-19T06:37:56;99666.72;;;11.55;51.45
31299;BME280;17927;52.350;13.402;2023-10-19T06:40:22;99659.63;;;11.54;51.57
31299;BME280;17927;52.350;13.402;2023-10-19T06:46:09;99639.72;;;11.47;51.54
31299;BME280;17927;52.350;13.402;2023-10-19T06:48:36;99637.69;;;11.49;51.75
31299;BME280;17927;52.350;13.402;2023-10-19T06:51:01;99630.22;;;11.51;51.75
31299;BME280;17927;52.350;13.402;2023-10-19T06:53:27;99626.50;;;11.52;51.77
31299;BME280;17927;52.350;13.402;2023-10-19T06:55:53;99633.59;;;11.53;51.94
31299;BME280;17927;52.350;13.402;2023-10-19T06:58:19;99629.22;;;11.52;52.00
31299;BME280;17927;52.350;13.402;2023-10-19T07:00:45;99631.72;;;11.54;51.89
31299;BME280;17927;52.350;13.402;2023-10-19T07:03:10;99628.19;;;11.53;52.01
31299;BME280;17927;52.350;13.402;2023-10-19T07:05:36;99639.69;;;11.55;51.77
31299;BME280;17927;52.350;13.402;2023-10-19T07:08:01;99633.25;;;11.56;51.86
31299;BME280;17927;52.350;13.402;2023-10-19T07:10:28;99644.09;;;11.56;52.10
31299;BME280;17927;52.350;13.402;2023-10-19T07:12:55;99633.94;;;11.58;52.02
31299;BME280;17927;52.350;13.402;2023-10-19T07:15:21;99631.88;;;11.61;52.11
31299;BME280;17927;52.350;13.402;2023-10-19T07:17:48;99635.25;;;11.63;52.13
31299;BME280;17927;52.350;13.402;2023-10-19T07:20:15;99628.66;;;11.65;52.31
31299;BME280;17927;52.350;13.402;2023-10-19T07:23:01;99640.50;;;11.64;52.19
31299;BME280;17927;52.350;13.402;2023-10-19T07:25:36;99640.31;;;11.66;52.34
31299;BME280;17927;52.350;13.402;2023-10-19T07:28:11;99638.25;;;11.68;52.41
31299;BME280;17927;52.350;13.402;2023-10-19T07:30:38;99628.78;;;11.72;52.52
31299;BME280;17927;52.350;13.402;2023-10-19T07:33:04;99629.06;;;11.77;52.64
31299;BME280;17927;52.350;13.402;2023-10-19T07:35:34;99639.72;;;11.79;52.42
31299;BME280;17927;52.350;13.402;2023-10-19T07:37:59;99657.47;;;11.81;52.39
31299;BME280;17927;52.350;13.402;2023-10-19T07:40:24;99656.25;;;11.84;52.58
31299;BME280;17927;52.350;13.402;2023-10-19T07:42:50;99646.97;;;11.86;52.55
31299;BME280;17927;52.350;13.402;2023-10-19T07:45:17;99651.16;;;11.89;52.88
31299;BME280;17927;52.350;13.402;2023-10-19T07:47:43;99650.34;;;11.88;52.69
31299;BME280;17927;52.350;13.402;2023-10-19T07:50:10;99646.59;;;11.90;52.68
31299;BME280;17927;52.350;13.402;2023-10-19T07:52:50;99646.59;;;11.90;52.81
31299;BME280;17927;52.350;13.402;2023-10-19T07:55:17;99648.28;;;11.91;52.77
31299;BME280;17927;52.350;13.402;2023-10-19T07:57:43;99650.63;;;11.94;52.78
31299;BME280;17927;52.350;13.402;2023-10-19T08:00:09;99644.84;;;11.97;52.82
31299;BME280;17927;52.350;13.402;2023-10-19T08:02:35;99646.38;;;11.99;52.77
31299;BME280;17927;52.350;13.402;2023-10-19T08:05:01;99642.50;;;12.02;52.58
31299;BME280;17927;52.350;13.402;2023-10-19T08:07:29;99642.31;;;12.03;52.74
31299;BME280;17927;52.350;13.402;2023-10-19T08:09:55;99638.56;;;12.05;52.62
31299;BME280;17927;52.350;13.402;2023-10-19T08:12:23;99635.88;;;12.05;52.75
31299;BME280;17927;52.350;13.402;2023-10-19T08:14:49;99634.03;;;12.05;52.80
31299;BME280;17927;52.350;13.402;2023-10-19T08:17:15;99632.34;;;12.04;52.69
31299;BME280;17927;52.350;13.402;2023-10-19T08:19:40;99626.53;;;12.07;52.76
31299;BME280;17927;52.350;13.402;2023-10-19T08:22:06;99623.66;;;12.09;52.91
31299;BME280;17927;52.350;13.402;2023-10-19T08:24:31;99621.63;;;12.11;52.86
31299;BME280;17927;52.350;13.402;2023-10-19T08:27:00;99615.84;;;12.14;52.95
31299;BME280;17927;52.350;13.402;2023-10-19T08:29:25;99610.06;;;12.17;53.00
31299;BME280;17927;52.350;13.402;2023-10-19T08:31:50;99605.31;;;12.19;53.15
31299;BME280;17927;52.350;13.402;2023-10-19T08:34:16;99603.63;;;12.18;52.97
31299;BME280;17927;52.350;13.402;2023-10-19T08:36:42;99589.25;;;12.17;53.04
31299;BME280;17927;52.350;13.402;2023-10-19T08:39:09;99578.22;;;12.19;53.20
31299;BME280;17927;52.350;13.402;2023-10-19T08:41:37;99589.06;;;12.19;53.04
31299;BME280;17927;52.350;13.402;2023-10-19T08:44:04;99580.78;;;12.21;53.23
31299;BME280;17927;52.350;13.402;2023-10-19T08:46:35;99596.00;;;12.22;53.16
31299;BME280;17927;52.350;13.402;2023-10-19T08:49:01;99610.00;;;12.25;53.19
31299;BME280;17927;52.350;13.402;2023-10-19T08:51:26;99610.84;;;12.26;53.12
31299;BME280;17927;52.350;13.402;2023-10-19T08:53:54;99610.84;;;12.26;53.29
31299;BME280;17927;52.350;13.402;2023-10-19T08:56:19;99607.28;;;12.25;53.18
31299;BME280;17927;52.350;13.402;2023-10-19T08:58:49;99591.06;;;12.25;53.02
31299;BME280;17927;52.350;13.402;2023-10-19T09:01:14;99584.41;;;12.28;53.25
31299;BME280;17927;52.350;13.402;2023-10-19T09:03:40;99580.50;;;12.30;53.16
31299;BME280;17927;52.350;13.402;2023-10-19T09:06:06;99575.94;;;12.31;53.12
31299;BME280;17927;52.350;13.402;2023-10-19T09:08:31;99583.88;;;12.32;53.20
31299;BME280;17927;52.350;13.402;2023-10-19T09:11:10;99569.50;;;12.32;53.42
31299;BME280;17927;52.350;13.402;2023-10-19T09:13:50;99573.88;;;12.33;53.44
31299;BME280;17927;52.350;13.402;2023-10-19T09:16:20;99567.44;;;12.34;53.36
31299;BME280;17927;52.350;13.402;2023-10-19T09:18:46;99569.97;;;12.36;53.45
31299;BME280;17927;52.350;13.402;2023-10-19T09:21:14;99569.81;;;12.37;53.47
31299;BME280;17927;52.350;13.402;2023-10-19T09:23:52;99560.63;;;12.38;53.63
31299;BME280;17927;52.350;13.402;2023-10-19T09:26:18;99552.34;;;12.40;53.63
31299;BME280;17927;52.350;13.402;2023-10-19T09:28:47;99554.69;;;12.43;53.76
31299;BME280;17927;52.350;13.402;2023-10-19T09:31:14;99553.81;;;12.42;53.77
31299;BME280;17927;52.350;13.402;2023-10-19T09:33:42;99558.22;;;12.43;53.61
31299;BME280;17927;52.350;13.402;2023-10-19T09:36:09;99547.22;;;12.45;53.89
31299;BME280;17927;52.350;13.402;2023-10-19T09:38:45;99556.16;;;12.45;54.09
31299;BME280;17927;52.350;13.402;2023-10-19T09:41:15;99545.34;;;12.45;54.04
31299;BME280;17927;52.350;13.402;2023-10-19T09:43:45;99553.25;;;12.47;54.30
31299;BME280;17927;52.350;13.402;2023-10-19T09:46:12;99556.16;;;12.45;54.09
31299;BME280;17927;52.350;13.402;2023-10-19T09:48:42;99557.00;;;12.46;54.45
31299;BME280;17927;52.350;13.402;2023-10-19T09:51:09;99557.00;;;12.46;54.37
31299;BME280;17927;52.350;13.402;2023-10-19T09:53:36;99553.25;;;12.47;54.33
31299;BME280;17927;52.350;13.402;2023-10-19T09:56:03;99548.88;;;12.46;54.54
31299;BME280;17927;52.350;13.402;2023-10-19T09:58:35;99546.16;;;12.46;54.60
31299;BME280;17927;52.350;13.402;2023-10-19T10:01:03;99546.16;;;12.46;54.83
31299;BME280;17927;52.350;13.402;2023-10-19T10:03:47;99547.84;;;12.47;54.78
31299;BME280;17927;52.350;13.402;2023-10-19T10:06:30;99546.34;;;12.44;54.84
31299;BME280;17927;52.350;13.402;2023-10-19T10:08:58;99550.94;;;12.44;54.87
31299;BME280;17927;52.350;13.402;2023-10-19T10:11:25;99550.75;;;12.45;55.08
31299;BME280;17927;52.350;13.402;2023-10-19T10:13:52;99548.69;;;12.47;55.21
31299;BME280;17927;52.350;13.402;2023-10-19T10:16:28;99543.09;;;12.49;55.47
31299;BME280;17927;52.350;13.402;2023-10-19T10:18:56;99541.03;;;12.51;55.60
31299;BME280;17927;52.350;13.402;2023-10-19T10:21:25;99537.50;;;12.51;55.47
31299;BME280;17927;52.350;13.402;2023-10-19T10:23:54;99536.47;;;12.52;55.56
31299;BME280;17927;52.350;13.402;2023-10-19T10:26:25;99531.06;;;12.52;55.57
31299;BME280;17927;52.350;13.402;2023-10-19T10:31:37;99514.97;;;12.50;55.76
31299;BME280;17927;52.350;13.402;2023-10-19T10:34:08;99520.22;;;12.52;55.81
31299;BME280;17927;52.350;13.402;2023-10-19T10:36:57;99512.94;;;12.52;55.85
31299;BME280;17927;52.350;13.402;2023-10-19T10:39:22;99511.44;;;12.49;55.88
31299;BME280;17927;52.350;13.402;2023-10-19T10:41:55;99512.94;;;12.52;55.97
31299;BME280;17927;52.350;13.402;2023-10-19T10:44:20;99513.56;;;12.39;55.91
31299;BME280;17927;52.350;13.402;2023-10-19T10:46:46;99498.63;;;12.43;55.83
31299;BME280;17927;52.350;13.402;2023-10-19T10:49:15;99509.56;;;12.50;56.19
31299;BME280;17927;52.350;13.402;2023-10-19T10:51:41;99508.19;;;12.54;56.13
31299;BME280;17927;52.350;13.402;2023-10-19T10:54:06;99508.19;;;12.54;56.07
31299;BME280;17927;52.350;13.402;2023-10-19T10:56:40;99501.72;;;12.55;56.11
31299;BME280;17927;52.350;13.402;2023-10-19T10:59:15;99494.63;;;12.54;56.46
31299;BME280;17927;52.350;13.402;2023-10-19T11:01:41;99497.13;;;12.56;56.22
31299;BME280;17927;52.350;13.402;2023-10-19T11:04:09;99497.78;;;12.58;56.50
31299;BME280;17927;52.350;13.402;2023-10-19T11:06:49;99497.44;;;12.61;56.52
31299;BME280;17927;52.350;13.402;2023-10-19T11:09:14;99500.97;;;12.61;56.34
31299;BME280;17927;52.350;13.402;2023-10-19T11:11:43;99491.81;;;12.62;56.74
31299;BME280;17927;52.350;13.402;2023-10-19T11:14:10;99479.13;;;12.63;56.75
31299;BME280;17927;52.350;13.402;2023-10-19T11:16:36;99495.19;;;12.64;56.80
31299;BME280;17927;52.350;13.402;2023-10-19T11:19:02;99485.84;;;12.67;56.74
31299;BME280;17927;52.350;13.402;2023-10-19T11:21:28;99478.34;;;12.69;56.28
31299;BME280;17927;52.350;13.402;2023-10-19T11:23:53;99478.84;;;12.73;56.61
31299;BME280;17927;52.350;13.402;2023-10-19T11:26:22;99467.34;;;12.71;57.04
31299;BME280;17927;52.350;13.402;2023-10-19T11:28:59;99472.41;;;12.74;56.74
31299;BME280;17927;52.350;13.402;2023-10-19T11:31:26;99462.59;;;12.73;56.89
31299;BME280;17927;52.350;13.402;2023-10-19T11:33:54;99458.84;;;12.74;56.95
31299;BME280;17927;52.350;13.402;2023-10-19T11:36:20;99464.06;;;12.75;57.11
31299;BME280;17927;52.350;13.402;2023-10-19T11:38:50;99468.47;;;12.76;56.97
31299;BME280;17927;52.350;13.402;2023-10-19T11:41:19;99463.25;;;12.75;57.00
31299;BME280;17927;52.350;13.402;2023-10-19T11:43:46;99460.53;;;12.75;56.93
31299;BME280;17927;52.350;13.402;2023-10-19T11:46:11;99462.38;;;12.74;57.12
31299;BME280;17927;52.350;13.402;2023-10-19T11:48:37;99462.38;;;12.74;56.93
31299;BME280;17927;52.350;13.402;2023-10-19T11:51:05;99463.03;;;12.76;56.83
31299;BME280;17927;52.350;13.402;2023-10-19T11:53:32;99462.38;;;12.74;56.84
31299;BME280;17927;52.350;13.402;2023-10-19T11:55:59;99460.69;;;12.73;57.03
31299;BME280;17927;52.350;13.402;2023-10-19T11:58:26;99462.59;;;12.73;57.02
31299;BME280;17927;52.350;13.402;2023-10-19T12:00:51;99463.78;;;12.70;56.91
31299;BME280;17927;52.350;13.402;2023-10-19T12:03:16;99460.69;;;12.73;56.82
31299;BME280;17927;52.350;13.402;2023-10-19T12:05:43;99454.63;;;12.71;56.90
31299;BME280;17927;52.350;13.402;2023-10-19T12:08:09;99449.63;;;12.68;56.95
31299;BME280;17927;52.350;13.402;2023-10-19T12:10:34;99446.25;;;12.66;56.50
31299;BME280;17927;52.350;13.402;2023-10-19T12:13:03;99444.72;;;12.63;56.92
31299;BME280;17927;52.350;13.402;2023-10-19T12:15:30;99434.09;;;12.62;57.12
31299;BME280;17927;52.350;13.402;2023-10-19T12:17:55;99446.41;;;12.64;57.33
31299;BME280;17927;52.350;13.402;2023-10-19T12:20:20;99451.00;;;12.64;57.22
31299;BME280;17927;52.350;13.402;2023-10-19T12:22:47;99452.03;;;12.63;56.91
31299;BME280;17927;52.350;13.402;2023-10-19T12:25:13;99442.03;;;12.63;57.09
31299;BME280;17927;52.350;13.402;2023-10-19T12:27:38;99431.19;;;12.63;57.31
31299;BME280;17927;52.350;13.402;2023-10-19T12:30:04;99440.16;;;12.64;57.16
31299;BME280;17927;52.350;13.402;2023-10-19T12:32:42;99438.50;;;12.63;57.46
31299;BME280;17927;52.350;13.402;2023-10-19T12:35:07;99428.47;;;12.63;57.36
31299;BME280;17927;52.350;13.402;2023-10-19T12:37:36;99423.91;;;12.64;57.24
31299;BME280;17927;52.350;13.402;2023-10-19T12:40:08;99426.25;;;12.52;57.40
31299;BME280;17927;52.350;13.402;2023-10-19T12:42:51;99418.41;;;12.57;57.24
31299;BME280;17927;52.350;13.402;2023-10-19T12:45:17;99429.50;;;12.62;57.40
31299;BME280;17927;52.350;13.402;2023-10-19T12:47:44;99428.31;;;12.65;57.51
31299;BME280;17927;52.350;13.402;2023-10-19T12:50:10;99420.84;;;12.67;57.47
31299;BME280;17927;52.350;13.402;2023-10-19T12:52:35;99425.22;;;12.68;57.41
31299;BME280;17927;52.350;13.402;2023-10-19T12:55:02;99412.50;;;12.69;57.43
31299;BME280;17927;52.350;13.402;2023-10-19T12:57:29;99420.25;;;12.72;57.44
31299;BME280;17927;52.350;13.402;2023-10-19T12:59:54;99433.16;;;12.70;57.31
31299;BME280;17927;52.350;13.402;2023-10-19T13:02:19;99427.75;;;12.70;57.48